createdAt,value
2017-07-21T00:01:42.613Z,96936.27
2017-07-21T00:04:10.274Z,96944.52
2017-07-21T00:06:37.902Z,96940.81
2017-07-21T00:09:05.569Z,96936.72
2017-07-21T00:11:33.272Z,96932.06
2017-07-21T00:14:00.935Z,96929.92
2017-07-21T00:16:28.569Z,96928.24
2017-07-21T00:18:56.218Z,96933.80
2017-07-21T00:21:23.955Z,96931.66
2017-07-21T00:23:51.603Z,96927.85
2017-07-21T00:26:19.216Z,96935.56
2017-07-21T00:28:46.854Z,96932.59
2017-07-21T00:31:14.586Z,96930.84
2017-07-21T00:33:42.571Z,96929.53
2017-07-21T00:36:10.192Z,96925.98
2017-07-21T00:38:37.832Z,96931.13
2017-07-21T00:41:05.572Z,96920.42
2017-07-21T00:43:33.194Z,96922.98
2017-07-21T00:46:00.852Z,96926.38
2017-07-21T00:48:28.468Z,96932.80
2017-07-21T00:50:56.116Z,96933.69
2017-07-21T00:53:23.737Z,96928.13
2017-07-21T00:55:51.398Z,96929.37
2017-07-21T00:58:19.007Z,96931.97
2017-07-21T01:00:46.660Z,96938.87
2017-07-21T01:03:14.294Z,96941.12
2017-07-21T01:05:42.091Z,96938.27
2017-07-21T01:08:09.693Z,96940.59
2017-07-21T01:10:37.347Z,96938.59
2017-07-21T01:13:06.510Z,96940.02
2017-07-21T01:15:34.173Z,96942.30
2017-07-21T01:18:01.787Z,96938.48
2017-07-21T01:20:29.458Z,96943.65
2017-07-21T01:22:57.131Z,96946.22
2017-07-21T01:25:24.778Z,96953.16
2017-07-21T01:27:52.389Z,96948.27
2017-07-21T01:30:21.382Z,96953.98
2017-07-21T01:32:48.996Z,96943.02
2017-07-21T01:35:16.657Z,96949.41
2017-07-21T01:37:44.292Z,96949.73
2017-07-21T01:40:11.963Z,96935.14
2017-07-21T01:42:39.569Z,96930.00
2017-07-21T01:45:07.220Z,96930.89
2017-07-21T01:47:34.840Z,96933.00
2017-07-21T01:50:02.645Z,96929.97
2017-07-21T01:52:30.367Z,96920.99
2017-07-21T01:54:58.016Z,96918.39
2017-07-21T01:57:26.448Z,96920.07
2017-07-21T01:59:54.080Z,96919.19
2017-07-21T02:02:21.706Z,96918.33
2017-07-21T02:04:49.624Z,96930.63
2017-07-21T02:07:17.261Z,96923.29
2017-07-21T02:09:44.878Z,96925.36
2017-07-21T02:12:12.537Z,96918.48
2017-07-21T02:14:40.216Z,96929.17
2017-07-21T02:17:07.881Z,96924.54
2017-07-21T02:19:35.528Z,96923.36
2017-07-21T02:22:03.163Z,96926.42
2017-07-21T02:24:30.779Z,96934.70
2017-07-21T02:26:58.596Z,96937.07
2017-07-21T02:29:26.224Z,96937.10
2017-07-21T02:31:53.880Z,96937.53
2017-07-21T02:34:21.478Z,96938.42
2017-07-21T02:36:49.192Z,96942.30
2017-07-21T02:39:16.800Z,96941.47
2017-07-21T02:41:44.440Z,96934.59
2017-07-21T02:44:12.046Z,96927.30
2017-07-21T02:46:39.715Z,96925.10
2017-07-21T02:49:07.353Z,96926.78
2017-07-21T02:51:35.017Z,96932.34
2017-07-21T02:54:02.672Z,96933.19
2017-07-21T02:56:30.329Z,96934.54
2017-07-21T02:58:58.013Z,96935.00
2017-07-21T03:01:25.656Z,96938.91
2017-07-21T03:03:53.271Z,96940.22
2017-07-21T03:06:21.021Z,96934.66
2017-07-21T03:08:48.665Z,96940.73
2017-07-21T03:11:16.291Z,96940.37
2017-07-21T03:13:43.900Z,96937.01
2017-07-21T03:16:11.533Z,96938.02
2017-07-21T03:18:39.196Z,96937.59
2017-07-21T03:21:06.851Z,96937.59
2017-07-21T03:23:34.466Z,96937.22
2017-07-21T03:26:02.119Z,96936.42
2017-07-21T03:28:29.768Z,96936.48
2017-07-21T03:30:57.557Z,96937.36
2017-07-21T03:33:25.456Z,96926.67
2017-07-21T03:35:53.069Z,96933.55
2017-07-21T03:38:20.715Z,96930.16
2017-07-21T03:40:48.337Z,96928.87
2017-07-21T03:43:15.986Z,96928.84
2017-07-21T03:45:43.640Z,96936.14
2017-07-21T03:48:11.304Z,96931.46
2017-07-21T03:50:38.921Z,96939.58
2017-07-21T03:53:06.629Z,96938.75
2017-07-21T03:55:38.009Z,96939.66
2017-07-21T03:58:05.665Z,96933.69
2017-07-21T04:00:33.415Z,96929.36
2017-07-21T04:03:01.086Z,96930.58
2017-07-21T04:05:28.710Z,96937.36
2017-07-21T04:07:56.391Z,96938.61
2017-07-21T04:10:24.046Z,96939.89
2017-07-21T04:12:51.691Z,96938.13
2017-07-21T04:15:19.453Z,96931.66
2017-07-21T04:17:47.102Z,96930.78
2017-07-21T04:20:14.715Z,96930.34
2017-07-21T04:22:42.393Z,96931.17
2017-07-21T04:25:10.011Z,96933.25
2017-07-21T04:27:37.754Z,96922.97
2017-07-21T04:30:05.447Z,96925.92
2017-07-21T04:32:33.085Z,96919.55
2017-07-21T04:35:00.715Z,96932.80
2017-07-21T04:37:28.369Z,96933.16
2017-07-21T04:39:56.079Z,96938.72
2017-07-21T04:42:23.735Z,96928.38
2017-07-21T04:44:51.359Z,96932.09
2017-07-21T04:47:19.069Z,96938.38
2017-07-21T04:49:46.862Z,96936.13
2017-07-21T04:52:14.544Z,96935.56
2017-07-21T04:54:42.180Z,96938.42
2017-07-21T04:57:09.921Z,96940.11
2017-07-21T04:59:37.556Z,96934.48
2017-07-21T05:02:05.214Z,96945.11
2017-07-21T05:04:32.863Z,96942.50
2017-07-21T05:07:00.493Z,96938.55
2017-07-21T05:09:28.144Z,96942.83
2017-07-21T05:11:55.776Z,96939.34
2017-07-21T05:14:23.436Z,96943.09
2017-07-21T05:16:51.154Z,96938.31
2017-07-21T05:19:18.800Z,96945.45
2017-07-21T05:21:46.425Z,96947.05
2017-07-21T05:24:14.305Z,96940.84
2017-07-21T05:26:41.938Z,96943.66
2017-07-21T05:29:09.576Z,96940.58
2017-07-21T05:31:37.195Z,96945.17
2017-07-21T05:34:04.910Z,96950.31
2017-07-21T05:36:32.520Z,96955.45
2017-07-21T05:39:00.231Z,96954.95
2017-07-21T05:41:27.864Z,96948.88
2017-07-21T05:43:55.504Z,96949.23
2017-07-21T05:46:23.149Z,96954.67
2017-07-21T05:48:50.786Z,96954.61
2017-07-21T05:51:18.404Z,96954.09
2017-07-21T05:53:46.091Z,96949.22
2017-07-21T05:56:13.705Z,96952.49
2017-07-21T05:58:41.351Z,96945.86
2017-07-21T06:01:08.997Z,96947.58
2017-07-21T06:03:36.676Z,96949.25
2017-07-21T06:06:07.240Z,96948.78
2017-07-21T06:08:34.895Z,96949.03
2017-07-21T06:11:02.485Z,96946.22
2017-07-21T06:13:30.299Z,96945.14
2017-07-21T06:15:57.922Z,96951.83
2017-07-21T06:18:25.613Z,96945.30
2017-07-21T06:20:53.235Z,96946.45
2017-07-21T06:23:20.880Z,96956.17
2017-07-21T06:25:48.510Z,96952.62
2017-07-21T06:28:16.131Z,96955.57
2017-07-21T06:30:46.694Z,96955.57
2017-07-21T06:33:14.332Z,96958.95
2017-07-21T06:35:41.948Z,96953.20
2017-07-21T06:38:09.688Z,96948.72
2017-07-21T06:40:37.375Z,96949.81
2017-07-21T06:43:05.009Z,96950.59
2017-07-21T06:45:32.649Z,96945.77
2017-07-21T06:48:00.340Z,96952.11
2017-07-21T06:50:28.099Z,96946.67
2017-07-21T06:52:55.708Z,96952.81
2017-07-21T06:55:23.529Z,96952.59
2017-07-21T06:57:51.158Z,96950.63
2017-07-21T07:00:18.814Z,96949.14
2017-07-21T07:02:46.454Z,96949.75
2017-07-21T07:05:14.191Z,96951.30
2017-07-21T07:07:41.805Z,96948.13
2017-07-21T07:10:09.474Z,96945.73
2017-07-21T07:12:37.085Z,96947.29
2017-07-21T07:15:04.712Z,96943.31
2017-07-21T07:17:32.807Z,96948.30
2017-07-21T07:20:00.475Z,96948.04
2017-07-21T07:22:28.161Z,96945.23
2017-07-21T07:24:55.902Z,96950.09
2017-07-21T07:27:23.601Z,96948.14
2017-07-21T07:29:51.258Z,96937.28
2017-07-21T07:32:18.894Z,96938.28
2017-07-21T07:34:46.561Z,96945.19
2017-07-21T07:37:14.186Z,96937.04
2017-07-21T07:39:41.833Z,96937.71
2017-07-21T07:42:09.471Z,96940.48
2017-07-21T07:44:37.136Z,96937.27
2017-07-21T07:47:04.761Z,96928.86
2017-07-21T07:49:32.404Z,96931.28
2017-07-21T07:52:00.013Z,96925.81
2017-07-21T07:54:27.648Z,96916.89
2017-07-21T07:56:55.404Z,96920.44
2017-07-21T07:59:23.087Z,96913.22
2017-07-21T08:04:18.631Z,96916.63
2017-07-21T08:06:46.248Z,96906.09
2017-07-21T08:09:14.024Z,96908.11
2017-07-21T08:11:41.667Z,96907.28
2017-07-21T08:14:09.288Z,96910.79
2017-07-21T08:16:36.999Z,96899.75
2017-07-21T08:19:04.642Z,96894.23
2017-07-21T08:21:32.291Z,96902.71
2017-07-21T08:23:59.975Z,96899.61
2017-07-21T08:26:27.600Z,96899.19
2017-07-21T08:28:55.236Z,96895.36
2017-07-21T08:31:22.883Z,96896.09
2017-07-21T08:33:50.523Z,96891.64
2017-07-21T08:36:18.159Z,96894.42
2017-07-21T08:38:45.793Z,96896.80
2017-07-21T08:41:13.464Z,96895.75
2017-07-21T08:43:41.090Z,96889.99
2017-07-21T08:46:08.727Z,96889.53
2017-07-21T08:48:36.362Z,96886.59
2017-07-21T08:51:03.991Z,96880.31
2017-07-21T08:53:33.339Z,96884.08
2017-07-21T08:56:01.115Z,96881.52
2017-07-21T08:58:28.745Z,96886.23
2017-07-21T09:00:56.400Z,96882.50
2017-07-21T09:03:24.123Z,96871.21
2017-07-21T09:05:51.766Z,96877.08
2017-07-21T09:08:19.368Z,96873.36
2017-07-21T09:10:47.020Z,96870.12
2017-07-21T09:13:14.662Z,96868.43
2017-07-21T09:15:42.369Z,96868.16
2017-07-21T09:18:09.990Z,96864.97
2017-07-21T09:20:37.614Z,96865.59
2017-07-21T09:23:05.260Z,96859.75
2017-07-21T09:25:32.904Z,96856.26
2017-07-21T09:28:00.546Z,96852.89
2017-07-21T09:30:28.187Z,96854.50
2017-07-21T09:32:55.813Z,96851.06
2017-07-21T09:35:23.480Z,96854.09
2017-07-21T09:37:51.211Z,96853.48
2017-07-21T09:40:18.884Z,96849.57
2017-07-21T09:42:46.528Z,96849.89
2017-07-21T09:45:19.858Z,96850.58
2017-07-21T09:47:47.496Z,96856.67
2017-07-21T09:50:15.988Z,96844.02
2017-07-21T09:52:43.705Z,96847.85
2017-07-21T09:55:11.346Z,96841.17
2017-07-21T09:57:39.016Z,96839.83
2017-07-21T10:00:06.634Z,96842.42
2017-07-21T10:02:34.303Z,96831.90
2017-07-21T10:05:01.951Z,96822.83
2017-07-21T10:07:29.643Z,96830.93
2017-07-21T10:09:57.271Z,96827.69
2017-07-21T10:12:24.922Z,96822.17
2017-07-21T10:14:52.547Z,96823.91
2017-07-21T10:17:20.279Z,96815.63
2017-07-21T10:19:47.881Z,96819.53
2017-07-21T10:22:15.539Z,96816.42
2017-07-21T10:24:43.384Z,96816.67
2017-07-21T10:27:11.046Z,96810.73
2017-07-21T10:29:38.661Z,96812.12
2017-07-21T10:32:06.309Z,96805.45
2017-07-21T10:34:33.926Z,96797.27
2017-07-21T10:37:01.559Z,96792.02
2017-07-21T10:39:29.181Z,96787.54
2017-07-21T10:41:56.844Z,96791.34
2017-07-21T10:44:24.511Z,96779.61
2017-07-21T10:46:52.401Z,96785.45
2017-07-21T10:49:20.049Z,96782.85
2017-07-21T10:51:47.715Z,96780.89
2017-07-21T10:54:15.377Z,96783.34
2017-07-21T10:56:43.034Z,96778.20
2017-07-21T10:59:10.641Z,96773.30
2017-07-21T11:01:38.352Z,96772.13
2017-07-21T11:04:05.965Z,96780.53
2017-07-21T11:06:33.611Z,96773.41
2017-07-21T11:09:01.233Z,96767.56
2017-07-21T11:11:28.906Z,96769.04
2017-07-21T11:13:56.675Z,96763.63
2017-07-21T11:16:24.326Z,96758.94
2017-07-21T11:18:52.062Z,96752.95
2017-07-21T11:21:19.677Z,96751.95
2017-07-21T11:23:47.301Z,96746.84
2017-07-21T11:26:15.128Z,96750.25
2017-07-21T11:28:42.799Z,96741.89
2017-07-21T11:31:10.424Z,96745.80
2017-07-21T11:33:38.147Z,96742.97
2017-07-21T11:36:05.876Z,96746.25
2017-07-21T11:38:33.520Z,96742.65
2017-07-21T11:41:01.139Z,96741.88
2017-07-21T11:43:28.836Z,96732.91
2017-07-21T11:45:56.474Z,96735.42
2017-07-21T11:48:24.257Z,96733.34
2017-07-21T11:50:51.866Z,96726.69
2017-07-21T11:53:19.546Z,96720.69
2017-07-21T11:55:47.159Z,96720.27
2017-07-21T11:58:14.915Z,96722.66
2017-07-21T12:00:42.536Z,96722.30
2017-07-21T12:03:10.185Z,96718.52
2017-07-21T12:05:37.788Z,96714.47
2017-07-21T12:08:05.436Z,96718.83
2017-07-21T12:10:33.486Z,96703.37
2017-07-21T12:13:01.137Z,96702.37
2017-07-21T12:15:28.788Z,96696.98
2017-07-21T12:17:56.436Z,96689.69
2017-07-21T12:20:24.080Z,96697.55
2017-07-21T12:22:51.737Z,96701.02
2017-07-21T12:25:20.043Z,96687.28
2017-07-21T12:27:47.751Z,96691.60
2017-07-21T12:30:15.438Z,96692.77
2017-07-21T12:32:43.119Z,96680.70
2017-07-21T12:35:11.316Z,96676.97
2017-07-21T12:37:38.944Z,96670.72
2017-07-21T12:40:06.710Z,96675.30
2017-07-21T12:42:34.325Z,96672.80
2017-07-21T12:45:01.993Z,96671.98
2017-07-21T12:47:29.620Z,96673.34
2017-07-21T12:49:57.257Z,96672.00
2017-07-21T12:52:24.878Z,96661.94
2017-07-21T12:54:52.525Z,96664.04
2017-07-21T12:57:20.176Z,96658.21
2017-07-21T12:59:47.843Z,96651.73
2017-07-21T13:02:15.463Z,96651.59
2017-07-21T13:04:43.118Z,96655.32
2017-07-21T13:07:10.740Z,96649.47
2017-07-21T13:09:38.391Z,96653.81
2017-07-21T13:12:06.211Z,96645.36
2017-07-21T13:14:33.852Z,96644.99
2017-07-21T13:17:01.573Z,96640.90
2017-07-21T13:19:29.234Z,96649.08
2017-07-21T13:21:56.876Z,96637.36
2017-07-21T13:24:24.552Z,96644.94
2017-07-21T13:26:52.213Z,96640.75
2017-07-21T13:29:19.856Z,96633.13
2017-07-21T13:31:47.486Z,96632.25
2017-07-21T13:34:15.257Z,96640.67
2017-07-21T13:36:42.856Z,96623.13
2017-07-21T13:39:10.479Z,96626.97
2017-07-21T13:41:38.208Z,96622.15
2017-07-21T13:44:05.852Z,96612.97
2017-07-21T13:46:33.486Z,96611.84
2017-07-21T13:49:01.116Z,96610.81
2017-07-21T13:51:28.718Z,96611.48
2017-07-21T13:53:56.501Z,96615.46
2017-07-21T13:56:24.128Z,96618.86
2017-07-21T13:58:52.766Z,96609.41
2017-07-21T14:01:20.399Z,96605.02
2017-07-21T14:03:48.310Z,96609.84
2017-07-21T14:06:15.892Z,96609.25
2017-07-21T14:08:43.537Z,96607.34
2017-07-21T14:11:11.186Z,96613.56
2017-07-21T14:13:38.830Z,96603.26
2017-07-21T14:16:06.492Z,96602.83
2017-07-21T14:18:34.157Z,96606.84
2017-07-21T14:21:01.965Z,96597.88
2017-07-21T14:23:29.599Z,96600.03
2017-07-21T14:25:57.258Z,96591.34
2017-07-21T14:28:24.889Z,96597.45
2017-07-21T14:30:52.632Z,96597.55
2017-07-21T14:33:20.251Z,96585.74
2017-07-21T14:35:47.908Z,96589.36
2017-07-21T14:38:15.551Z,96583.96
2017-07-21T14:40:43.341Z,96578.48
2017-07-21T14:43:10.987Z,96577.57
2017-07-21T14:45:38.659Z,96572.63
2017-07-21T14:48:06.296Z,96570.24
2017-07-21T14:50:33.915Z,96570.24
2017-07-21T14:53:02.605Z,96569.70
2017-07-21T14:55:30.669Z,96570.38
2017-07-21T14:57:58.428Z,96566.87
2017-07-21T15:00:26.074Z,96569.13
2017-07-21T15:02:53.709Z,96570.39
2017-07-21T15:05:21.416Z,96565.11
2017-07-21T15:07:49.033Z,96559.88
2017-07-21T15:10:16.686Z,96551.03
2017-07-21T15:12:44.325Z,96550.01
2017-07-21T15:15:11.970Z,96552.29
2017-07-21T15:17:39.599Z,96549.05
2017-07-21T15:20:07.237Z,96564.08
2017-07-21T15:22:34.854Z,96553.84
2017-07-21T15:25:02.496Z,96565.57
2017-07-21T15:27:30.126Z,96567.28
2017-07-21T15:29:57.758Z,96561.58
2017-07-21T15:32:25.651Z,96566.06
2017-07-21T15:34:53.559Z,96564.76
2017-07-21T15:37:21.159Z,96551.50
2017-07-21T15:39:48.778Z,96553.17
2017-07-21T15:42:16.437Z,96545.07
2017-07-21T15:44:44.117Z,96553.34
2017-07-21T15:47:11.772Z,96550.06
2017-07-21T15:49:39.517Z,96545.52
2017-07-21T15:52:07.145Z,96541.31
2017-07-21T15:54:34.754Z,96531.98
2017-07-21T15:57:02.526Z,96530.42
2017-07-21T15:59:30.142Z,96526.22
2017-07-21T16:01:57.780Z,96515.17
2017-07-21T16:04:25.494Z,96511.11
2017-07-21T16:06:53.123Z,96512.75
2017-07-21T16:09:20.762Z,96520.37
2017-07-21T16:11:48.459Z,96508.92
2017-07-21T16:14:16.828Z,96510.35
2017-07-21T16:16:44.555Z,96512.45
2017-07-21T16:19:12.203Z,96513.20
2017-07-21T16:21:39.836Z,96516.64
2017-07-21T16:24:07.552Z,96508.45
2017-07-21T16:26:35.204Z,96514.38
2017-07-21T16:29:02.940Z,96504.59
2017-07-21T16:31:30.551Z,96510.56
2017-07-21T16:33:58.347Z,96506.20
2017-07-21T16:36:27.798Z,96503.56
2017-07-21T16:38:59.440Z,96500.19
2017-07-21T16:41:27.083Z,96490.02
2017-07-21T16:43:54.785Z,96495.31
2017-07-21T16:46:24.010Z,96495.91
2017-07-21T16:48:51.875Z,96490.95
2017-07-21T16:51:19.618Z,96483.99
2017-07-21T16:53:47.302Z,96485.88
2017-07-21T16:56:19.851Z,96489.13
2017-07-21T16:58:48.099Z,96489.41
2017-07-21T17:01:16.629Z,96493.05
2017-07-21T17:03:45.659Z,96488.16
2017-07-21T17:06:13.343Z,96498.09
2017-07-21T17:08:40.974Z,96505.92
2017-07-21T17:11:08.903Z,96511.45
2017-07-21T17:13:36.532Z,96516.72
2017-07-21T17:16:04.307Z,96520.08
2017-07-21T17:18:31.949Z,96531.07
2017-07-21T17:20:59.617Z,96538.88
2017-07-21T17:23:27.446Z,96542.04
2017-07-21T17:25:55.074Z,96533.02
2017-07-21T17:28:22.720Z,96540.99
2017-07-21T17:30:50.345Z,96543.57
2017-07-21T17:33:18.302Z,96549.36
2017-07-21T17:35:45.950Z,96556.72
2017-07-21T17:38:13.632Z,96553.48
2017-07-21T17:40:41.273Z,96555.13
2017-07-21T17:43:09.088Z,96556.95
2017-07-21T17:45:36.733Z,96548.28
2017-07-21T17:48:04.439Z,96546.27
2017-07-21T17:50:32.051Z,96542.53
2017-07-21T17:52:59.771Z,96544.91
2017-07-21T17:55:27.398Z,96537.22
2017-07-21T17:57:55.064Z,96543.66
2017-07-21T18:00:22.971Z,96543.64
2017-07-21T18:02:50.650Z,96546.50
2017-07-21T18:05:18.308Z,96544.89
2017-07-21T18:07:46.101Z,96541.87
2017-07-21T18:10:14.213Z,96552.81
2017-07-21T18:12:42.002Z,96545.55
2017-07-21T18:15:09.644Z,96545.33
2017-07-21T18:17:37.442Z,96548.10
2017-07-21T18:20:05.079Z,96547.23
2017-07-21T18:22:32.733Z,96548.37
2017-07-21T18:25:00.379Z,96540.82
2017-07-21T18:27:28.126Z,96540.20
2017-07-21T18:29:55.777Z,96542.02
2017-07-21T18:32:23.443Z,96533.20
2017-07-21T18:34:51.063Z,96535.09
2017-07-21T18:37:18.804Z,96525.42
2017-07-21T18:39:46.431Z,96525.30
2017-07-21T18:42:14.148Z,96514.00
2017-07-21T18:44:41.928Z,96507.50
2017-07-21T18:47:09.650Z,96511.20
2017-07-21T18:49:37.324Z,96515.42
2017-07-21T18:52:05.571Z,96514.53
2017-07-21T18:54:33.355Z,96510.88
2017-07-21T18:57:01.023Z,96492.18
2017-07-21T18:59:28.712Z,96499.72
2017-07-21T19:01:56.364Z,96495.23
2017-07-21T19:04:24.050Z,96485.27
2017-07-21T19:06:51.679Z,96482.52
2017-07-21T19:09:19.342Z,96487.58
2017-07-21T19:11:47.036Z,96486.63
2017-07-21T19:14:14.861Z,96487.38
2017-07-21T19:16:42.538Z,96486.91
2017-07-21T19:19:10.238Z,96486.10
2017-07-21T19:21:37.995Z,96486.62
2017-07-21T19:24:05.946Z,96497.73
2017-07-21T19:26:33.686Z,96498.09
2017-07-21T19:29:01.337Z,96500.20
2017-07-21T19:31:28.990Z,96495.87
2017-07-21T19:33:56.883Z,96495.48
2017-07-21T19:36:24.548Z,96492.56
2017-07-21T19:38:52.287Z,96498.14
2017-07-21T19:41:20.090Z,96492.91
2017-07-21T19:43:47.755Z,96504.45
2017-07-21T19:46:15.746Z,96506.37
2017-07-21T19:48:43.370Z,96496.89
2017-07-21T19:51:11.405Z,96487.87
2017-07-21T19:53:39.045Z,96489.37
2017-07-21T19:56:08.557Z,96490.86
2017-07-21T19:58:36.219Z,96485.42
2017-07-21T20:01:04.402Z,96494.95
2017-07-21T20:03:32.058Z,96499.39
2017-07-21T20:06:00.191Z,96499.05
2017-07-21T20:08:27.924Z,96497.84
2017-07-21T20:10:55.994Z,96498.94
2017-07-21T20:13:24.174Z,96495.27
2017-07-21T20:15:51.903Z,96486.84
2017-07-21T20:18:19.613Z,96489.59
2017-07-21T20:20:47.435Z,96488.50
2017-07-21T20:23:15.457Z,96495.32
2017-07-21T20:25:43.100Z,96492.41
2017-07-21T20:28:11.432Z,96494.75
2017-07-21T20:30:39.087Z,96489.39
2017-07-21T20:33:06.773Z,96488.72
2017-07-21T20:35:34.420Z,96497.98
2017-07-21T20:38:02.172Z,96500.84
2017-07-21T20:40:29.876Z,96502.36
2017-07-21T20:42:57.511Z,96502.63
2017-07-21T20:45:25.140Z,96500.73
2017-07-21T20:47:52.781Z,96507.03
2017-07-21T20:50:20.499Z,96512.80
2017-07-21T20:52:48.139Z,96505.86
2017-07-21T20:55:16.200Z,96513.45
2017-07-21T20:57:43.855Z,96512.42
2017-07-21T21:00:11.529Z,96511.05
2017-07-21T21:02:39.294Z,96507.05
2017-07-21T21:05:06.925Z,96503.30
2017-07-21T21:07:34.593Z,96497.08
2017-07-21T21:10:02.253Z,96502.92
2017-07-21T21:12:29.928Z,96499.98
2017-07-21T21:14:57.565Z,96496.93
2017-07-21T21:17:25.207Z,96501.97
2017-07-21T21:19:52.913Z,96500.09
2017-07-21T21:22:20.563Z,96490.77
2017-07-21T21:24:48.201Z,96490.58
2017-07-21T21:27:15.859Z,96494.27
2017-07-21T21:29:43.459Z,96491.45
2017-07-21T21:32:11.138Z,96490.05
2017-07-21T21:34:38.899Z,96489.69
2017-07-21T21:37:06.620Z,96486.05
2017-07-21T21:39:34.256Z,96484.03
2017-07-21T21:42:01.917Z,96477.69
2017-07-21T21:44:29.569Z,96481.80
2017-07-21T21:46:57.231Z,96476.86
2017-07-21T21:49:24.907Z,96470.56
2017-07-21T21:51:52.572Z,96471.49
2017-07-21T21:54:20.930Z,96468.67
2017-07-21T21:56:48.731Z,96467.97
2017-07-21T21:59:16.351Z,96472.02
2017-07-21T22:01:44.453Z,96490.73
2017-07-21T22:04:12.068Z,96494.77
2017-07-21T22:06:39.688Z,96492.72
2017-07-21T22:09:07.320Z,96490.80
2017-07-21T22:11:34.941Z,96495.54
2017-07-21T22:14:02.589Z,96495.66
2017-07-21T22:16:30.234Z,96495.76
2017-07-21T22:18:57.872Z,96497.30
2017-07-21T22:21:25.510Z,96510.95
2017-07-21T22:23:53.159Z,96505.09
2017-07-21T22:26:20.789Z,96504.55
2017-07-21T22:28:48.435Z,96501.48
2017-07-21T22:31:16.060Z,96501.41
2017-07-21T22:33:43.714Z,96495.98
2017-07-21T22:36:11.356Z,96493.71
2017-07-21T22:38:39.011Z,96490.69
2017-07-21T22:41:06.656Z,96486.45
2017-07-21T22:43:34.288Z,96500.28
2017-07-21T22:46:01.923Z,96502.89
2017-07-21T22:48:29.534Z,96516.59
2017-07-21T22:50:57.382Z,96507.19
2017-07-21T22:53:25.025Z,96504.43
2017-07-21T22:55:52.643Z,96506.45
2017-07-21T22:58:20.295Z,96507.41
2017-07-21T23:00:47.905Z,96514.93
2017-07-21T23:03:15.551Z,96534.00
2017-07-21T23:05:43.204Z,96545.30
2017-07-21T23:08:10.865Z,96559.73
2017-07-21T23:10:38.472Z,96542.38
2017-07-21T23:13:06.186Z,96531.20
2017-07-21T23:15:33.802Z,96550.55
2017-07-21T23:18:01.470Z,96570.41
2017-07-21T23:20:29.102Z,96540.58
2017-07-21T23:22:57.093Z,96541.46
2017-07-21T23:25:24.710Z,96560.36
2017-07-21T23:27:53.577Z,96572.99
2017-07-21T23:30:21.196Z,96580.11
2017-07-21T23:32:48.895Z,96579.30
2017-07-21T23:35:16.532Z,96575.78
2017-07-21T23:37:44.297Z,96576.66
2017-07-21T23:40:11.964Z,96591.82
2017-07-21T23:42:40.921Z,96582.55
2017-07-21T23:45:08.587Z,96577.91
2017-07-21T23:47:37.644Z,96579.60
2017-07-21T23:50:05.275Z,96570.23
2017-07-21T23:52:32.898Z,96569.05
2017-07-21T23:55:00.599Z,96570.66
2017-07-21T23:57:28.385Z,96565.02
2017-07-21T23:59:56.044Z,96565.77
